createdAt,value
2022-09-05T00:00:03.731Z,23.70
2022-09-05T00:02:35.933Z,23.90
2022-09-05T00:05:20.802Z,23.70
2022-09-05T00:08:00.390Z,23.70
2022-09-05T00:11:08.565Z,23.70
2022-09-05T00:13:31.306Z,23.70
2022-09-05T00:16:07.889Z,23.60
2022-09-05T00:23:45.543Z,23.60
2022-09-05T00:24:32.754Z,23.60
2022-09-05T00:25:08.669Z,23.60
2022-09-05T00:27:47.288Z,23.60
2022-09-05T00:31:06.800Z,23.60
2022-09-05T00:33:26.098Z,23.60
2022-09-05T00:36:14.110Z,23.60
2022-09-05T00:38:52.193Z,23.60
2022-09-05T00:41:22.704Z,23.50
2022-09-05T00:43:52.511Z,23.50
2022-09-05T00:46:25.475Z,23.50
2022-09-05T00:48:58.632Z,23.90
2022-09-05T00:51:36.955Z,23.60
2022-09-05T00:54:29.900Z,23.50
2022-09-05T00:57:41.091Z,23.50
2022-09-05T01:00:17.692Z,23.60
2022-09-05T01:03:19.340Z,23.50
2022-09-05T01:06:00.690Z,23.50
2022-09-05T01:08:49.665Z,23.50
2022-09-05T01:11:36.691Z,23.50
2022-09-05T01:14:20.925Z,23.40
2022-09-05T01:17:09.427Z,23.40
2022-09-05T01:19:51.738Z,23.40
2022-09-05T01:22:44.954Z,23.40
2022-09-05T01:25:31.979Z,23.40
2022-09-05T01:29:14.302Z,23.40
2022-09-05T01:31:05.424Z,23.40
2022-09-05T01:33:43.778Z,23.30
2022-09-05T01:36:22.366Z,23.30
2022-09-05T01:40:10.414Z,23.30
2022-09-05T01:41:58.931Z,23.30
2022-09-05T01:44:40.506Z,23.30
2022-09-05T01:47:29.557Z,23.30
2022-09-05T01:50:10.759Z,23.30
2022-09-05T01:53:04.287Z,23.20
2022-09-05T01:56:06.174Z,23.20
2022-09-05T01:58:48.173Z,23.20
2022-09-05T02:01:25.434Z,23.20
2022-09-05T02:04:22.617Z,23.20
2022-09-05T02:07:30.530Z,23.20
2022-09-05T02:10:12.892Z,23.20
2022-09-05T02:12:58.465Z,23.20
2022-09-05T02:15:42.925Z,23.20
2022-09-05T02:18:24.815Z,23.10
2022-09-05T02:20:57.890Z,23.10
2022-09-05T02:23:40.735Z,23.10
2022-09-05T02:26:17.199Z,23.10
2022-09-05T02:28:52.072Z,23.10
2022-09-05T02:31:25.433Z,23.10
2022-09-05T02:34:02.314Z,23.10
2022-09-05T02:36:37.247Z,23.10
2022-09-05T02:43:35.359Z,23.10
2022-09-05T02:45:13.546Z,23.00
2022-09-05T02:45:25.779Z,23.00
2022-09-05T02:48:14.998Z,22.90
2022-09-05T02:54:40.224Z,22.90
2022-09-05T02:57:27.241Z,22.90
2022-09-05T02:57:38.340Z,22.90
2022-09-05T02:59:46.555Z,22.90
2022-09-05T03:02:25.991Z,22.80
2022-09-05T03:05:04.846Z,22.80
2022-09-05T03:07:58.262Z,22.80
2022-09-05T03:10:53.358Z,22.80
2022-09-05T03:14:11.369Z,22.80
2022-09-05T03:17:17.590Z,22.80
2022-09-05T03:20:21.198Z,22.80
2022-09-05T03:23:21.644Z,22.70
2022-09-05T03:26:26.611Z,22.70
2022-09-05T03:29:14.476Z,22.80
2022-09-05T03:32:15.917Z,22.70
2022-09-05T03:35:18.227Z,22.70
2022-09-05T03:38:01.555Z,22.70
2022-09-05T03:40:41.751Z,22.60
2022-09-05T03:43:45.308Z,22.60
2022-09-05T03:46:26.856Z,22.70
2022-09-05T03:53:34.323Z,22.70
2022-09-05T03:57:06.485Z,22.70
2022-09-05T03:57:15.326Z,22.60
2022-09-05T03:58:56.899Z,22.60
2022-09-05T04:04:58.983Z,22.60
2022-09-05T04:08:13.382Z,22.60
2022-09-05T04:08:15.798Z,22.60
2022-09-05T04:10:22.327Z,22.50
2022-09-05T04:12:57.835Z,22.50
2022-09-05T04:15:33.467Z,22.60
2022-09-05T04:18:04.601Z,22.50
2022-09-05T04:20:40.849Z,22.50
2022-09-05T04:23:25.130Z,22.50
2022-09-05T04:26:11.452Z,22.50
2022-09-05T04:28:59.356Z,22.50
2022-09-05T04:31:46.141Z,22.50
2022-09-05T04:34:34.329Z,22.50
2022-09-05T04:37:04.548Z,22.60
2022-09-05T04:39:33.334Z,22.50
2022-09-05T04:42:15.140Z,22.50
2022-09-05T04:44:50.528Z,22.50
2022-09-05T04:47:29.123Z,22.50
2022-09-05T04:50:06.727Z,22.50
2022-09-05T04:52:58.968Z,22.50
2022-09-05T04:55:29.011Z,22.50
2022-09-05T04:58:00.732Z,22.50
2022-09-05T05:06:04.647Z,22.60
2022-09-05T05:06:11.904Z,22.50
2022-09-05T05:06:42.211Z,22.50
2022-09-05T05:09:21.658Z,22.50
2022-09-05T05:16:27.875Z,22.50
2022-09-05T05:18:03.938Z,22.40
2022-09-05T05:18:12.354Z,22.50
2022-09-05T05:20:41.332Z,22.40
2022-09-05T05:23:14.344Z,22.50
2022-09-05T05:25:50.689Z,22.40
2022-09-05T05:28:27.660Z,22.50
2022-09-05T05:31:01.304Z,22.50
2022-09-05T05:33:35.485Z,22.50
2022-09-05T05:36:06.830Z,22.50
2022-09-05T05:38:43.947Z,22.40
2022-09-05T05:41:19.924Z,22.50
2022-09-05T05:43:49.008Z,22.50
2022-09-05T05:46:29.049Z,22.60
2022-09-05T05:49:09.567Z,22.60
2022-09-05T05:52:02.093Z,22.50
2022-09-05T05:54:37.739Z,22.60
2022-09-05T05:57:56.488Z,22.60
2022-09-05T06:00:38.838Z,22.70
2022-09-05T06:03:46.223Z,22.60
2022-09-05T06:06:23.582Z,22.70
2022-09-05T06:14:54.742Z,22.80
2022-09-05T06:14:56.460Z,22.80
2022-09-05T06:16:39.123Z,22.90
2022-09-05T06:19:58.307Z,23.00
2022-09-05T06:23:02.497Z,23.00
2022-09-05T06:26:08.009Z,23.00
2022-09-05T06:28:50.510Z,23.10
2022-09-05T06:31:36.401Z,23.20
2022-09-05T06:34:32.928Z,23.20
2022-09-05T06:37:11.589Z,23.30
2022-09-05T06:40:00.288Z,23.30
2022-09-05T06:42:43.358Z,23.40
2022-09-05T06:45:40.315Z,23.40
2022-09-05T06:48:21.451Z,23.50
2022-09-05T06:51:44.787Z,23.40
2022-09-05T06:54:36.185Z,23.60
2022-09-05T06:57:26.004Z,23.70
2022-09-05T07:00:21.930Z,23.70
2022-09-05T07:03:13.590Z,23.80
2022-09-05T07:05:46.311Z,23.80
2022-09-05T07:08:35.847Z,23.90
2022-09-05T07:11:15.611Z,24.10
2022-09-05T07:13:58.344Z,24.10
2022-09-05T07:16:39.328Z,24.20
2022-09-05T07:19:26.662Z,24.20
2022-09-05T07:22:29.432Z,24.30
2022-09-05T07:25:06.732Z,24.30
2022-09-05T07:27:49.818Z,24.30
2022-09-05T07:30:30.066Z,24.40
2022-09-05T07:33:01.630Z,24.40
2022-09-05T07:35:41.628Z,24.50
2022-09-05T07:38:14.763Z,24.50
2022-09-05T07:40:48.364Z,24.50
2022-09-05T07:43:22.459Z,24.60
2022-09-05T07:46:11.306Z,24.60
2022-09-05T07:48:44.265Z,24.60
2022-09-05T07:55:23.451Z,24.70
2022-09-05T07:57:02.081Z,24.70
2022-09-05T07:59:54.073Z,24.80
2022-09-05T08:02:23.310Z,24.90
2022-09-05T08:04:51.403Z,25.00
2022-09-05T08:07:47.961Z,25.10
2022-09-05T08:10:15.735Z,25.20
2022-09-05T08:13:24.745Z,25.20
2022-09-05T08:16:10.215Z,25.10
2022-09-05T08:18:37.608Z,25.10
2022-09-05T08:21:13.366Z,25.10
2022-09-05T08:23:57.336Z,25.20
2022-09-05T08:26:36.662Z,25.20
2022-09-05T08:29:11.028Z,25.30
2022-09-05T08:31:42.947Z,25.40
2022-09-05T08:34:16.362Z,25.30
2022-09-05T08:36:47.040Z,25.30
2022-09-05T08:39:19.508Z,25.40
2022-09-05T08:42:05.803Z,25.40
2022-09-05T08:46:39.704Z,25.50
2022-09-05T08:47:45.772Z,25.60
2022-09-05T08:50:28.847Z,25.70
2022-09-05T08:53:18.744Z,25.70
2022-09-05T08:56:02.590Z,25.80
2022-09-05T08:58:45.798Z,25.90
2022-09-05T09:01:18.889Z,26.00
2022-09-05T09:04:11.402Z,26.00
2022-09-05T09:07:47.430Z,26.10
2022-09-05T09:10:01.989Z,26.20
2022-09-05T09:13:08.325Z,26.30
2022-09-05T09:15:40.007Z,26.10
2022-09-05T09:18:14.216Z,26.10
2022-09-05T09:20:49.805Z,26.30
2022-09-05T09:23:40.753Z,26.20
2022-09-05T09:26:15.760Z,26.30
2022-09-05T09:28:57.095Z,26.40
2022-09-05T09:31:37.439Z,26.40
2022-09-05T09:34:22.994Z,26.50
2022-09-05T09:37:25.449Z,26.60
2022-09-05T09:40:39.892Z,26.70
2022-09-05T09:43:22.576Z,26.70
2022-09-05T09:46:04.474Z,26.90
2022-09-05T09:49:00.700Z,27.00
2022-09-05T09:52:00.848Z,27.10
2022-09-05T09:55:17.522Z,27.20
2022-09-05T09:58:10.388Z,27.30
2022-09-05T10:00:51.062Z,27.50
2022-09-05T10:10:33.477Z,27.60
2022-09-05T10:10:53.557Z,27.70
2022-09-05T10:11:08.151Z,27.80
2022-09-05T10:13:22.289Z,27.90
2022-09-05T10:16:29.744Z,27.90
2022-09-05T10:22:45.484Z,28.20
2022-09-05T10:25:27.899Z,28.40
2022-09-05T10:28:06.330Z,28.50
2022-09-05T10:32:05.454Z,28.60
2022-09-05T10:35:22.834Z,28.80
2022-09-05T10:36:29.264Z,28.70
2022-09-05T10:39:14.046Z,28.90
2022-09-05T10:41:48.844Z,29.00
2022-09-05T10:44:25.552Z,29.10
2022-09-05T10:47:06.152Z,29.20
2022-09-05T10:49:39.021Z,29.20
2022-09-05T10:52:18.971Z,29.30
2022-09-05T10:55:14.725Z,29.20
2022-09-05T10:57:56.786Z,29.30
2022-09-05T11:02:24.157Z,29.30
2022-09-05T11:03:45.119Z,29.50
2022-09-05T11:06:16.371Z,29.70
2022-09-05T11:09:00.017Z,29.80
2022-09-05T11:11:35.123Z,29.70
2022-09-05T11:14:07.283Z,29.70
2022-09-05T11:16:50.902Z,29.80
2022-09-05T11:19:26.940Z,29.80
2022-09-05T11:22:12.136Z,29.80
2022-09-05T11:24:52.821Z,30.00
2022-09-05T11:27:30.601Z,29.90
2022-09-05T11:30:04.004Z,29.80
2022-09-05T11:39:50.313Z,30.00
2022-09-05T11:39:53.392Z,29.80
2022-09-05T11:40:08.819Z,29.90
2022-09-05T11:42:08.063Z,29.80
2022-09-05T11:44:48.836Z,29.90
2022-09-05T11:47:55.484Z,30.00
2022-09-05T11:50:49.995Z,30.00
2022-09-05T11:53:42.767Z,30.10
2022-09-05T11:56:44.072Z,30.20
2022-09-05T12:00:10.705Z,30.30
2022-09-05T12:03:57.503Z,30.30
2022-09-05T12:06:30.722Z,30.40
2022-09-05T12:09:11.252Z,30.40
2022-09-05T12:11:52.043Z,30.50
2022-09-05T12:14:42.459Z,30.70
2022-09-05T12:17:35.302Z,30.80
2022-09-05T12:20:16.952Z,30.70
2022-09-05T12:22:54.283Z,30.70
2022-09-05T12:27:36.058Z,30.70
2022-09-05T12:29:27.866Z,30.90
2022-09-05T12:32:30.449Z,30.90
2022-09-05T12:36:10.872Z,31.10
2022-09-05T12:40:56.189Z,31.10
2022-09-05T12:41:36.532Z,31.20
2022-09-05T12:44:40.074Z,31.20
2022-09-05T12:45:58.483Z,31.30
2022-09-05T12:48:38.576Z,31.40
2022-09-05T12:51:11.082Z,31.50
2022-09-05T12:53:45.184Z,31.60
2022-09-05T13:00:24.232Z,31.70
2022-09-05T13:02:57.257Z,31.80
2022-09-05T13:03:06.457Z,31.70
2022-09-05T13:05:10.676Z,31.70
2022-09-05T13:07:42.859Z,31.70
2022-09-05T13:12:32.611Z,31.50
2022-09-05T13:14:55.450Z,31.50
2022-09-05T13:16:03.334Z,31.40
2022-09-05T13:18:39.046Z,31.40
2022-09-05T13:21:12.124Z,31.50
2022-09-05T13:23:50.547Z,31.30
2022-09-05T13:26:23.923Z,31.10
2022-09-05T13:29:10.470Z,30.90
2022-09-05T13:37:56.382Z,31.10
2022-09-05T13:38:05.339Z,31.00
2022-09-05T13:38:14.033Z,31.10
2022-09-05T13:40:42.387Z,31.00
2022-09-05T13:43:12.218Z,30.70
2022-09-05T13:46:03.345Z,30.70
2022-09-05T13:51:36.001Z,30.70
2022-09-05T13:54:30.467Z,30.60
2022-09-05T13:57:31.506Z,30.60
2022-09-05T14:00:29.010Z,30.60
2022-09-05T14:03:39.439Z,30.60
2022-09-05T14:06:45.927Z,30.60
2022-09-05T14:09:42.626Z,30.60
2022-09-05T14:12:29.245Z,30.60
2022-09-05T14:15:15.739Z,30.70
2022-09-05T14:18:02.746Z,30.60
2022-09-05T14:21:12.762Z,30.50
2022-09-05T14:23:56.577Z,30.50
2022-09-05T14:26:29.805Z,30.50
2022-09-05T14:29:07.688Z,30.40
2022-09-05T14:37:41.283Z,30.50
2022-09-05T14:37:51.310Z,30.30
2022-09-05T14:38:04.142Z,30.30
2022-09-05T14:41:18.903Z,30.30
2022-09-05T14:44:32.455Z,30.20
2022-09-05T14:47:35.224Z,30.10
2022-09-05T14:50:38.540Z,30.20
2022-09-05T14:56:50.121Z,30.20
2022-09-05T15:02:49.757Z,30.20
2022-09-05T15:02:54.064Z,30.20
2022-09-05T15:05:11.268Z,30.30
2022-09-05T15:07:42.734Z,30.20
2022-09-05T15:12:18.327Z,30.10
2022-09-05T15:13:26.642Z,30.10
2022-09-05T15:16:07.792Z,30.10
2022-09-05T15:18:40.031Z,30.10
2022-09-05T15:21:33.476Z,30.10
2022-09-05T15:24:13.756Z,30.10
2022-09-05T15:26:52.651Z,30.20
2022-09-05T15:29:24.762Z,30.10
2022-09-05T15:31:59.503Z,30.00
2022-09-05T15:34:39.297Z,30.10
2022-09-05T15:37:24.135Z,30.10
2022-09-05T15:40:22.693Z,30.10
2022-09-05T15:42:55.499Z,30.00
2022-09-05T15:45:26.223Z,30.00
2022-09-05T15:48:08.209Z,30.00
2022-09-05T15:50:42.070Z,30.00
2022-09-05T15:53:14.498Z,30.10
2022-09-05T15:55:49.490Z,30.10
2022-09-05T15:58:20.868Z,30.00
2022-09-05T16:00:52.133Z,30.00
2022-09-05T16:08:23.810Z,30.00
2022-09-05T16:10:28.383Z,29.80
2022-09-05T16:10:45.443Z,29.80
2022-09-05T16:12:31.876Z,29.80
2022-09-05T16:16:35.311Z,29.80
2022-09-05T16:23:13.778Z,29.80
2022-09-05T16:23:14.353Z,29.80
2022-09-05T16:23:41.541Z,29.80
2022-09-05T16:26:12.870Z,29.80
2022-09-05T16:28:47.642Z,29.80
2022-09-05T16:31:22.805Z,29.70
2022-09-05T16:33:50.918Z,29.80
2022-09-05T16:36:27.098Z,29.70
2022-09-05T16:39:01.820Z,29.70
2022-09-05T16:41:39.037Z,29.60
2022-09-05T16:44:15.269Z,29.50
2022-09-05T16:46:50.765Z,29.40
2022-09-05T16:49:39.973Z,29.40
2022-09-05T16:52:17.290Z,29.30
2022-09-05T16:54:53.083Z,29.10
2022-09-05T16:57:25.017Z,28.90
2022-09-05T16:59:53.140Z,29.10
2022-09-05T17:02:29.582Z,29.00
2022-09-05T17:05:11.463Z,29.00
2022-09-05T17:07:58.492Z,28.90
2022-09-05T17:10:28.886Z,28.90
2022-09-05T17:12:57.580Z,28.80
2022-09-05T17:15:28.801Z,28.80
2022-09-05T17:18:20.488Z,28.80
2022-09-05T17:20:54.069Z,28.80
2022-09-05T17:28:01.150Z,28.80
2022-09-05T17:29:31.262Z,28.80
2022-09-05T17:32:48.285Z,28.60
2022-09-05T17:35:42.239Z,28.60
2022-09-05T17:38:37.325Z,28.50
2022-09-05T17:41:48.364Z,28.50
2022-09-05T17:44:21.649Z,28.40
2022-09-05T17:47:05.032Z,28.40
2022-09-05T17:49:43.062Z,28.40
2022-09-05T17:52:21.014Z,28.30
2022-09-05T17:54:52.741Z,28.20
2022-09-05T17:57:41.371Z,28.20
2022-09-05T18:00:48.812Z,28.10
2022-09-05T18:04:15.905Z,28.10
2022-09-05T18:06:59.677Z,28.10
2022-09-05T18:10:12.822Z,28.00
2022-09-05T18:13:13.767Z,28.00
2022-09-05T18:16:12.326Z,27.80
2022-09-05T18:19:32.416Z,27.60
2022-09-05T18:21:48.277Z,27.50
2022-09-05T18:28:03.565Z,27.40
2022-09-05T18:30:26.642Z,27.40
2022-09-05T18:33:55.417Z,27.30
2022-09-05T18:36:33.312Z,27.20
2022-09-05T18:39:41.549Z,26.80
2022-09-05T18:42:25.637Z,26.60
2022-09-05T18:45:00.053Z,26.50
2022-09-05T18:47:33.554Z,26.50
2022-09-05T18:50:24.138Z,26.50
2022-09-05T18:53:09.261Z,26.10
2022-09-05T18:56:10.743Z,26.10
2022-09-05T18:58:34.529Z,26.10
2022-09-05T19:01:29.338Z,26.00
2022-09-05T19:04:02.126Z,26.10
2022-09-05T19:06:35.863Z,26.00
2022-09-05T19:09:09.214Z,25.90
2022-09-05T19:11:52.853Z,25.90
2022-09-05T19:14:39.444Z,25.90
2022-09-05T19:17:14.948Z,25.80
2022-09-05T19:20:31.802Z,25.70
2022-09-05T19:23:12.061Z,25.70
2022-09-05T19:25:43.430Z,25.60
2022-09-05T19:36:52.399Z,25.60
2022-09-05T19:36:54.140Z,25.40
2022-09-05T19:37:12.860Z,25.40
2022-09-05T19:37:30.211Z,25.40
2022-09-05T19:41:45.655Z,25.20
2022-09-05T19:47:26.914Z,25.00
2022-09-05T19:47:34.810Z,24.90
2022-09-05T19:50:56.444Z,25.00
2022-09-05T19:53:24.987Z,24.80
2022-09-05T19:55:53.744Z,24.70
2022-09-05T19:58:23.140Z,24.70
2022-09-05T20:01:05.046Z,24.70
2022-09-05T20:03:38.731Z,24.70
2022-09-05T20:06:29.828Z,24.70
2022-09-05T20:09:10.192Z,24.70
2022-09-05T20:11:45.553Z,24.80
2022-09-05T20:14:20.300Z,24.70
2022-09-05T20:16:49.986Z,24.60
2022-09-05T20:19:28.839Z,24.60
2022-09-05T20:22:10.209Z,24.60
2022-09-05T20:24:49.334Z,24.60
2022-09-05T20:27:18.189Z,24.70
2022-09-05T20:29:55.726Z,24.70
2022-09-05T20:32:39.097Z,24.70
2022-09-05T20:37:38.860Z,24.70
2022-09-05T20:43:20.078Z,24.70
2022-09-05T20:43:22.464Z,24.70
2022-09-05T20:43:52.339Z,24.60
2022-09-05T20:48:48.990Z,24.50
2022-09-05T20:54:09.741Z,24.50
2022-09-05T20:54:21.726Z,24.50
2022-09-05T20:55:38.559Z,24.40
2022-09-05T20:58:11.824Z,24.40
2022-09-05T21:01:20.639Z,24.40
2022-09-05T21:03:36.487Z,24.30
2022-09-05T21:06:22.135Z,24.40
2022-09-05T21:08:50.849Z,24.70
2022-09-05T21:11:30.300Z,24.20
2022-09-05T21:14:02.281Z,24.10
2022-09-05T21:16:32.108Z,24.10
2022-09-05T21:19:00.217Z,24.10
2022-09-05T21:21:30.382Z,24.00
2022-09-05T21:24:17.657Z,24.00
2022-09-05T21:26:49.237Z,23.90
2022-09-05T21:29:26.058Z,23.70
2022-09-05T21:32:01.028Z,23.70
2022-09-05T21:34:34.326Z,23.70
2022-09-05T21:37:07.037Z,23.50
2022-09-05T21:39:39.971Z,23.40
2022-09-05T21:44:02.839Z,23.30
2022-09-05T21:47:43.757Z,23.20
2022-09-05T21:47:53.722Z,23.20
2022-09-05T21:50:31.021Z,23.20
2022-09-05T21:53:46.913Z,23.20
2022-09-05T21:59:25.142Z,23.30
2022-09-05T21:59:27.093Z,23.40
2022-09-05T22:01:37.465Z,23.30
2022-09-05T22:04:18.907Z,23.30
2022-09-05T22:06:48.218Z,23.20
2022-09-05T22:09:17.068Z,23.20
2022-09-05T22:11:50.086Z,23.20
2022-09-05T22:14:20.077Z,23.20
2022-09-05T22:16:50.366Z,23.20
2022-09-05T22:19:36.824Z,23.20
2022-09-05T22:22:17.092Z,23.20
2022-09-05T22:24:49.675Z,23.20
2022-09-05T22:27:19.309Z,23.20
2022-09-05T22:29:50.543Z,23.40
2022-09-05T22:32:33.951Z,23.20
2022-09-05T22:35:27.741Z,23.10
2022-09-05T22:37:59.348Z,23.10
2022-09-05T22:40:28.537Z,23.10
2022-09-05T22:42:57.227Z,23.10
2022-09-05T22:45:26.431Z,23.10
2022-09-05T22:47:54.686Z,23.10
2022-09-05T22:50:23.151Z,23.10
2022-09-05T22:52:50.988Z,23.20
2022-09-05T22:55:19.519Z,23.10
2022-09-05T22:57:47.298Z,23.10
2022-09-05T23:00:15.901Z,23.10
2022-09-05T23:02:49.002Z,23.20
2022-09-05T23:05:19.557Z,23.20
2022-09-05T23:07:47.327Z,23.20
2022-09-05T23:10:15.432Z,23.20
2022-09-05T23:12:43.188Z,23.20
2022-09-05T23:15:11.660Z,23.20
2022-09-05T23:17:39.452Z,23.10
2022-09-05T23:20:10.851Z,23.30
2022-09-05T23:22:39.149Z,23.30
2022-09-05T23:25:07.647Z,23.20
2022-09-05T23:27:36.559Z,23.30
2022-09-05T23:30:06.412Z,23.30
2022-09-05T23:32:34.829Z,23.30
2022-09-05T23:35:02.698Z,23.20
2022-09-05T23:37:31.828Z,23.30
2022-09-05T23:39:59.655Z,23.30
2022-09-05T23:42:27.489Z,23.30
2022-09-05T23:44:55.286Z,23.20
2022-09-05T23:47:23.044Z,23.30
2022-09-05T23:49:50.803Z,23.20
2022-09-05T23:52:18.581Z,23.20
2022-09-05T23:54:47.699Z,23.30
2022-09-05T23:57:15.460Z,23.20
2022-09-05T23:59:43.213Z,23.20
